aviador You're here:

OMFJ Decoded Metar

FUJEIRAH in UNITED ARAB EMIRATES
Report Time2017-08-19 11:00:00
UTC Time2017-08-19 11:07:01
Flight Rules mvfr MVFR
Wind090° at 08 kt
W.Decomp.*RWY 11: 7.5 kt HW 2.7 kt LCW
W.Rank090° ranks 5
Current wind is above 090° avg. (6.6)
Visibility5000 m
Phenomena:Haze
Clouds:N/A
Expected CloudBase > 2,800 ft AGL from Temp-Dew spread
CeilingNone
Temp35°C (ISA +20)
Dew Point28°C (67% RH)
Heat Index48.7°C
QNH1000 hPa
Density Alt3,314 ft
Elevation92 ft
Report Wrong Elevation
Raw Report
METAR OMFJ 191100Z 09008KT 060V120 5000 HZ NSC 35/28 Q1000 A2955=

Extra information for OMFJ:More info

Metar Taf Metar & Taf Last 4 Metars F.Rules Stats Wind Profile Meteogram Temp Stats Airport Information Weather charts Add Link Nearby VenuesMetar ALERT Operation Metar Decoded Social comments